Time;durP1;ratioP1;P1;durP2;ratioP2;P2;SDS_P1;SDS_P2;PMS_P1;PMS_P2;Temp;Humidity;BMP_temperature;BMP_pressure;BME280_temperature;BME280_humidity;BME280_pressure;Samples;Min_cycle;Max_cycle;Signal;HPM_P1;HPM_P2
2022/06/28 00:00:07;;;;;;;7.50;3.30;;;20.30;1.00;;;;;;4989466;28;20243;-67
2022/06/28 00:02:33;;;;;;;10.20;3.93;;;20.30;1.00;;;;;;4989696;28;20172;-69
2022/06/28 00:04:59;;;;;;;5.17;3.30;;;20.30;1.00;;;;;;4971618;28;20487;-69
2022/06/28 00:07:24;;;;;;;8.70;3.80;;;20.20;1.00;;;;;;4989259;28;20188;-69
2022/06/28 00:09:50;;;;;;;8.30;3.40;;;20.10;1.00;;;;;;4988412;28;20526;-70
2022/06/28 00:12:16;;;;;;;6.70;3.67;;;19.90;99.90;;;;;;4988925;28;20204;-69
2022/06/28 00:17:26;;;;;;;4.53;3.37;;;19.80;1.00;;;;;;4986242;28;20749;-69
2022/06/28 00:19:52;;;;;;;4.03;2.90;;;20.00;99.90;;;;;;4969498;28;20409;-69
2022/06/28 00:22:17;;;;;;;6.80;4.07;;;20.00;99.90;;;;;;4952671;28;20169;-70
2022/06/28 00:24:43;;;;;;;10.47;4.40;;;20.00;99.90;;;;;;4969147;28;20256;-69
2022/06/28 00:27:09;;;;;;;4.13;3.73;;;20.10;21.90;;;;;;4969538;28;20200;-68
2022/06/28 00:29:34;;;;;;;10.43;3.70;;;20.10;1.00;;;;;;4969712;28;20261;-68
2022/06/28 00:32:00;;;;;;;6.87;4.20;;;20.10;1.00;;;;;;4970395;28;20178;-68
2022/06/28 00:34:26;;;;;;;3.10;2.80;;;20.00;83.30;;;;;;4969831;28;20174;-68
2022/06/28 00:36:51;;;;;;;7.10;3.30;;;20.00;36.60;;;;;;4969689;28;20240;-69
2022/06/28 00:39:18;;;;;;;5.50;3.03;;;20.10;1.00;;;;;;4968628;28;20565;-68
2022/06/28 00:41:44;;;;;;;5.67;3.50;;;20.10;1.00;;;;;;4969701;28;20252;-69
2022/06/28 00:44:11;;;;;;;4.10;3.70;;;20.10;1.00;;;;;;4971213;28;20421;-68
2022/06/28 00:46:37;;;;;;;8.37;3.73;;;20.20;1.00;;;;;;4974019;28;20417;-69
2022/06/28 00:49:04;;;;;;;6.97;3.23;;;20.20;1.00;;;;;;4973537;28;20405;-67
2022/06/28 00:51:30;;;;;;;11.20;6.57;;;20.20;1.00;;;;;;4974241;28;20634;-68
2022/06/28 00:53:56;;;;;;;6.10;3.67;;;20.20;1.00;;;;;;4965814;28;21233;-67
2022/06/28 00:56:23;;;;;;;4.67;4.27;;;20.10;1.00;;;;;;4953911;29;20445;-68
2022/06/28 00:58:50;;;;;;;7.80;3.47;;;20.20;1.00;;;;;;4953506;29;20236;-69
2022/06/28 01:01:16;;;;;;;8.90;4.43;;;20.10;1.00;;;;;;4954612;29;20493;-68
2022/06/28 01:03:42;;;;;;;8.60;4.20;;;20.10;1.00;;;;;;4954084;29;20519;-68
2022/06/28 01:06:07;;;;;;;4.63;3.97;;;20.20;1.00;;;;;;4954494;29;20289;-68
2022/06/28 01:08:34;;;;;;;7.67;5.10;;;20.20;1.00;;;;;;4953604;29;20212;-69
2022/06/28 01:11:18;;;;;;;12.63;5.60;;;20.30;1.00;;;;;;4953788;29;20174;-68
2022/06/28 01:13:51;;;;;;;28.23;7.27;;;20.30;1.00;;;;;;4954305;29;20505;-69
2022/06/28 01:16:19;;;;;;;10.77;5.33;;;20.20;1.00;;;;;;4954231;29;20424;-69
2022/06/28 01:18:45;;;;;;;11.50;6.93;;;20.20;1.00;;;;;;4974187;28;21099;-67
2022/06/28 01:21:13;;;;;;;10.67;5.70;;;20.20;1.00;;;;;;4988026;28;20416;-67
2022/06/28 01:23:43;;;;;;;10.17;5.87;;;20.20;1.00;;;;;;4992228;28;20460;-67
2022/06/28 01:26:14;;;;;;;5.43;4.97;;;20.20;1.00;;;;;;4992827;28;20455;-68
2022/06/28 01:28:41;;;;;;;6.80;5.00;;;20.20;1.00;;;;;;4982932;28;20440;-67
2022/06/28 01:31:06;;;;;;;7.43;5.13;;;20.30;1.00;;;;;;4961413;28;20412;-68
2022/06/28 01:33:36;;;;;;;8.80;4.40;;;20.30;99.90;;;;;;4973408;28;20487;-67
2022/06/28 01:36:11;;;;;;;7.87;4.03;;;20.30;99.90;;;;;;4974016;28;20226;-66
2022/06/28 01:38:38;;;;;;;9.10;4.10;;;20.30;99.90;;;;;;4972597;28;20902;-70
2022/06/28 01:41:06;;;;;;;5.63;3.80;;;20.30;99.90;;;;;;4973538;28;20894;-68
2022/06/28 01:43:32;;;;;;;7.37;4.13;;;20.20;99.90;;;;;;4973578;28;20413;-70
2022/06/28 01:45:59;;;;;;;5.73;4.07;;;20.20;99.90;;;;;;4973397;28;20459;-66
2022/06/28 01:48:25;;;;;;;8.53;4.07;;;20.20;99.90;;;;;;4972352;28;20425;-69
2022/06/28 01:50:54;;;;;;;6.40;4.30;;;20.30;87.60;;;;;;4972870;28;20409;-69
2022/06/28 01:53:21;;;;;;;9.23;4.20;;;20.20;99.90;;;;;;4970592;28;20437;-67
2022/06/28 01:55:48;;;;;;;5.67;4.10;;;20.10;99.90;;;;;;4951890;28;20930;-69
2022/06/28 01:58:14;;;;;;;6.80;6.03;;;20.00;1.00;;;;;;4953231;29;20469;-69
2022/06/28 02:00:40;;;;;;;12.17;5.03;;;19.80;56.60;;;;;;4936397;29;20501;-70
2022/06/28 02:03:06;;;;;;;6.80;5.20;;;19.80;99.90;;;;;;4953829;29;20574;-68
2022/06/28 02:05:32;;;;;;;6.17;4.40;;;19.80;99.90;;;;;;4952939;29;20494;-69
2022/06/28 02:07:58;;;;;;;11.10;5.07;;;19.70;99.90;;;;;;4952937;29;20194;-67
2022/06/28 02:10:25;;;;;;;8.83;4.73;;;19.70;99.90;;;;;;4952574;29;20412;-68
2022/06/28 02:12:50;;;;;;;5.13;4.63;;;19.70;99.90;;;;;;4954350;29;20406;-69
2022/06/28 02:15:16;;;;;;;4.70;4.03;;;19.70;99.90;;;;;;4957270;29;20433;-69
2022/06/28 02:17:43;;;;;;;9.40;4.90;;;19.80;99.90;;;;;;4967086;28;20204;-67
2022/06/28 02:20:10;;;;;;;11.70;4.70;;;19.90;1.00;;;;;;5004549;28;20170;-65
2022/06/28 02:22:36;;;;;;;4.60;4.20;;;19.90;1.00;;;;;;5005546;28;20435;-67
2022/06/28 02:25:02;;;;;;;5.10;3.30;;;19.80;1.00;;;;;;4992247;28;20472;-67
2022/06/28 02:27:28;;;;;;;11.43;5.13;;;19.90;1.00;;;;;;4992105;28;20431;-67
2022/06/28 02:29:53;;;;;;;4.57;3.93;;;19.90;1.00;;;;;;4963125;28;20426;-67
2022/06/28 02:32:19;;;;;;;6.30;4.37;;;19.80;1.00;;;;;;4971152;28;20174;-69
2022/06/28 02:40:22;;;;;;;6.60;3.90;;;19.40;1.00;;;;;;4972504;28;20494;-69
2022/06/28 02:42:56;;;;;;;5.60;4.23;;;19.40;1.00;;;;;;4972415;28;20408;-67
2022/06/28 02:45:24;;;;;;;9.67;5.13;;;19.60;1.00;;;;;;4972483;28;20457;-67
2022/06/28 02:47:50;;;;;;;8.27;4.63;;;19.70;99.90;;;;;;4972742;28;20435;-66
2022/06/28 02:50:17;;;;;;;4.10;3.70;;;19.70;1.00;;;;;;4971852;28;20853;-68
2022/06/28 02:52:43;;;;;;;7.63;3.67;;;19.80;99.90;;;;;;4972273;28;20460;-69
2022/06/28 02:55:09;;;;;;;18.03;5.67;;;19.90;99.90;;;;;;4980823;28;20799;-68
2022/06/28 02:57:36;;;;;;;8.77;4.23;;;19.90;68.20;;;;;;4991550;28;20193;-67
2022/06/28 03:00:09;;;;;;;7.30;3.93;;;19.90;1.00;;;;;;4995169;28;20873;-67
2022/06/28 03:02:35;;;;;;;10.30;4.37;;;19.90;1.00;;;;;;4995975;28;20487;-68
2022/06/28 03:05:06;;;;;;;14.03;4.47;;;19.90;1.00;;;;;;4994423;28;20543;-68
2022/06/28 03:07:32;;;;;;;3.47;3.17;;;20.00;1.00;;;;;;4991964;28;20515;-67
2022/06/28 03:09:59;;;;;;;8.90;4.27;;;19.90;1.00;;;;;;4991466;28;20429;-68
2022/06/28 03:12:25;;;;;;;12.13;4.20;;;19.90;1.00;;;;;;4991746;28;20401;-67
2022/06/28 03:14:50;;;;;;;15.40;4.67;;;19.80;1.00;;;;;;4992038;28;20436;-67
2022/06/28 03:17:16;;;;;;;17.80;4.07;;;19.90;1.00;;;;;;4989886;28;20613;-67
2022/06/28 03:19:42;;;;;;;9.40;3.83;;;19.90;1.00;;;;;;4971587;28;20169;-66
2022/06/28 03:22:07;;;;;;;4.03;3.67;;;19.80;1.00;;;;;;4972058;28;20181;-67
2022/06/28 03:24:33;;;;;;;6.30;4.00;;;19.60;1.00;;;;;;4971564;28;20288;-68
2022/06/28 03:26:59;;;;;;;16.00;5.40;;;19.70;38.00;;;;;;4970815;28;20190;-67
2022/06/28 03:29:24;;;;;;;15.50;5.00;;;19.70;29.00;;;;;;4971086;28;20174;-67
2022/06/28 03:31:50;;;;;;;9.80;5.13;;;19.70;9.30;;;;;;4971475;28;20240;-68
2022/06/28 03:34:17;;;;;;;5.00;3.60;;;19.80;1.00;;;;;;4970538;28;20536;-67
2022/06/28 03:36:42;;;;;;;9.83;4.10;;;19.60;1.00;;;;;;4971462;28;20181;-66
2022/06/28 03:39:08;;;;;;;15.70;5.13;;;19.60;10.40;;;;;;4969997;28;20405;-69
2022/06/28 03:41:34;;;;;;;30.00;5.77;;;19.70;1.00;;;;;;4951528;28;20173;-67
2022/06/28 03:44:00;;;;;;;22.30;5.73;;;19.80;1.00;;;;;;4971225;28;20205;-67
2022/06/28 03:46:25;;;;;;;11.30;4.87;;;19.80;1.00;;;;;;4971155;28;20201;-68
2022/06/28 03:48:51;;;;;;;7.47;3.93;;;19.80;1.00;;;;;;4952191;28;20212;-67
2022/06/28 03:51:17;;;;;;;4.77;3.67;;;19.80;1.00;;;;;;4970415;28;20185;-67
2022/06/28 03:53:42;;;;;;;5.67;4.17;;;19.50;1.00;;;;;;4965689;28;20202;-67
2022/06/28 03:56:10;;;;;;;10.33;3.73;;;19.50;1.00;;;;;;4952368;29;20270;-68
2022/06/28 03:58:36;;;;;;;8.03;3.80;;;19.50;1.00;;;;;;4951333;29;20209;-67
2022/06/28 04:01:02;;;;;;;4.20;3.80;;;19.30;1.00;;;;;;4934456;29;20478;-68
2022/06/28 04:03:28;;;;;;;6.00;4.40;;;19.30;99.90;;;;;;4951512;29;20898;-67
2022/06/28 04:05:54;;;;;;;5.50;3.40;;;19.30;99.90;;;;;;4951354;29;20568;-67
2022/06/28 04:08:19;;;;;;;4.00;3.70;;;19.50;1.00;;;;;;4950731;29;20695;-69
2022/06/28 04:10:46;;;;;;;11.30;4.03;;;19.50;1.00;;;;;;4950786;29;20238;-69
2022/06/28 04:13:12;;;;;;;6.70;3.80;;;19.60;1.00;;;;;;4951758;29;20571;-68
2022/06/28 04:15:38;;;;;;;5.63;3.20;;;19.70;1.00;;;;;;4952057;29;20567;-69
2022/06/28 04:18:05;;;;;;;7.10;3.77;;;19.60;1.00;;;;;;4965714;28;20327;-68
2022/06/28 04:20:31;;;;;;;17.50;3.90;;;19.30;28.10;;;;;;4982613;28;20424;-69
2022/06/28 04:22:57;;;;;;;5.70;4.60;;;19.20;99.90;;;;;;4990711;28;20456;-68
2022/06/28 04:25:23;;;;;;;9.17;4.43;;;19.20;99.90;;;;;;4990256;28;20991;-68
2022/06/28 04:27:48;;;;;;;4.40;3.90;;;19.30;1.00;;;;;;4989264;28;20626;-68
2022/06/28 04:30:14;;;;;;;8.87;4.80;;;19.40;1.00;;;;;;4954841;28;20178;-69
2022/06/28 04:32:40;;;;;;;10.43;7.00;;;19.40;1.00;;;;;;4970615;28;20165;-68
2022/06/28 04:35:06;;;;;;;16.20;14.80;;;19.40;1.00;;;;;;4964122;28;20181;-67
2022/06/28 04:37:32;;;;;;;4.80;4.40;;;19.60;99.90;;;;;;4968548;28;20189;-68
2022/06/28 04:39:58;;;;;;;6.07;5.17;;;19.80;99.90;;;;;;4968238;28;20750;-67
2022/06/28 04:42:23;;;;;;;12.37;9.83;;;19.80;99.90;;;;;;4969658;28;20177;-67
2022/06/28 04:44:49;;;;;;;15.20;9.47;;;20.00;57.50;;;;;;4968970;28;20221;-68
2022/06/28 04:47:14;;;;;;;15.50;8.20;;;20.20;99.90;;;;;;4969554;28;20194;-67
2022/06/28 04:49:40;;;;;;;7.70;4.80;;;20.40;99.90;;;;;;4969520;28;20174;-67
2022/06/28 04:52:07;;;;;;;20.80;6.40;;;20.60;1.00;;;;;;4970201;28;20173;-67
2022/06/28 04:54:32;;;;;;;16.97;5.83;;;20.60;1.00;;;;;;4957720;28;20253;-67
2022/06/28 04:56:58;;;;;;;8.77;7.97;;;20.30;58.80;;;;;;4949019;29;20566;-67
2022/06/28 04:59:24;;;;;;;28.77;25.70;;;20.10;99.90;;;;;;4949575;29;20181;-68
2022/06/28 05:01:49;;;;;;;19.80;17.07;;;20.30;99.90;;;;;;4956043;28;20267;-67
2022/06/28 05:04:15;;;;;;;17.93;13.17;;;21.10;1.00;;;;;;4968481;28;20223;-67
2022/06/28 05:06:40;;;;;;;22.47;16.17;;;21.40;1.00;;;;;;4969558;28;20174;-68
2022/06/28 05:09:06;;;;;;;16.40;11.70;;;21.10;1.00;;;;;;4968444;28;20595;-67
2022/06/28 05:11:32;;;;;;;12.50;10.27;;;20.70;1.00;;;;;;4969030;28;20178;-66
2022/06/28 05:13:59;;;;;;;14.50;6.93;;;20.80;1.00;;;;;;4951997;28;20262;-68
2022/06/28 05:16:24;;;;;;;12.73;11.30;;;21.40;1.00;;;;;;4967365;28;20180;-67
2022/06/28 05:18:50;;;;;;;10.27;9.17;;;21.50;1.00;;;;;;4962266;28;20779;-65
2022/06/28 05:21:16;;;;;;;14.60;12.03;;;21.90;1.00;;;;;;4959447;28;20698;-67
2022/06/28 05:23:42;;;;;;;7.57;6.47;;;22.10;1.00;;;;;;4936041;29;20185;-67
2022/06/28 05:26:08;;;;;;;12.47;6.77;;;22.70;1.00;;;;;;4953616;28;20466;-67
2022/06/28 05:28:34;;;;;;;13.17;5.63;;;22.60;1.00;;;;;;4957918;28;20202;-67
2022/06/28 05:31:00;;;;;;;8.03;6.10;;;22.90;1.00;;;;;;4949926;28;20237;-67
2022/06/28 05:33:26;;;;;;;8.90;5.93;;;23.00;1.00;;;;;;4950591;29;20391;-69
2022/06/28 05:35:51;;;;;;;9.03;4.47;;;23.10;99.90;;;;;;4951305;28;20201;-67
2022/06/28 05:38:17;;;;;;;12.80;5.53;;;23.30;99.90;;;;;;4950667;29;20194;-69
2022/06/28 05:40:43;;;;;;;5.13;4.37;;;23.00;99.90;;;;;;4954397;28;20186;-68
2022/06/28 05:43:08;;;;;;;5.60;5.10;;;22.90;99.90;;;;;;4951282;29;20253;-68
2022/06/28 05:45:34;;;;;;;7.70;5.00;;;21.90;99.90;;;;;;4950832;28;20218;-67
2022/06/28 05:48:00;;;;;;;6.63;3.70;;;21.50;99.90;;;;;;4971241;28;20723;-68
2022/06/28 05:50:25;;;;;;;4.43;3.10;;;22.20;1.00;;;;;;4962720;28;20686;-66
2022/06/28 05:52:52;;;;;;;5.83;5.33;;;22.80;99.90;;;;;;4950929;28;20249;-67
2022/06/28 05:55:20;;;;;;;4.37;3.93;;;23.00;99.90;;;;;;4977661;28;20736;-68
2022/06/28 05:57:46;;;;;;;4.67;3.80;;;22.50;99.90;;;;;;4973915;28;20536;-69
2022/06/28 06:00:13;;;;;;;6.87;4.37;;;22.70;99.90;;;;;;4971127;28;20427;-68
2022/06/28 06:02:39;;;;;;;7.77;4.53;;;22.20;99.90;;;;;;4965119;28;20512;-68
2022/06/28 06:05:06;;;;;;;4.03;3.37;;;21.40;99.90;;;;;;4958069;28;21045;-65
2022/06/28 06:07:32;;;;;;;4.50;4.10;;;22.20;99.90;;;;;;4977784;28;20432;-67
2022/06/28 06:09:57;;;;;;;6.10;4.53;;;22.30;99.90;;;;;;4970290;28;20424;-67
2022/06/28 06:12:23;;;;;;;7.17;3.70;;;21.80;99.90;;;;;;4963050;28;20257;-67
2022/06/28 06:14:49;;;;;;;6.00;3.30;;;22.10;99.90;;;;;;4961228;28;20182;-66
2022/06/28 06:17:14;;;;;;;5.40;3.23;;;22.30;99.90;;;;;;4966476;28;20241;-69
2022/06/28 06:19:40;;;;;;;6.20;3.70;;;22.60;99.90;;;;;;4965904;28;20177;-69
2022/06/28 06:22:06;;;;;;;5.83;4.57;;;22.80;99.90;;;;;;4964392;28;20178;-67
2022/06/28 06:24:32;;;;;;;4.90;4.40;;;22.90;99.90;;;;;;4967803;28;20215;-67
2022/06/28 06:26:58;;;;;;;5.83;4.40;;;22.80;99.90;;;;;;4955473;28;20305;-65
2022/06/28 06:29:24;;;;;;;4.80;4.10;;;22.50;99.90;;;;;;4950657;28;20446;-67
2022/06/28 06:31:49;;;;;;;7.60;4.60;;;22.20;99.90;;;;;;4953729;28;20518;-66
2022/06/28 06:34:15;;;;;;;6.87;4.23;;;22.40;99.90;;;;;;4964488;28;20280;-67
2022/06/28 06:36:41;;;;;;;5.00;4.50;;;22.50;99.90;;;;;;4967361;28;20181;-68
2022/06/28 06:39:08;;;;;;;5.23;4.73;;;22.20;99.90;;;;;;4969088;28;20201;-68
2022/06/28 06:41:34;;;;;;;6.73;4.33;;;22.20;99.90;;;;;;4957514;28;20504;-68
2022/06/28 06:43:59;;;;;;;5.10;4.43;;;21.90;99.90;;;;;;4971359;28;20886;-68
2022/06/28 06:46:25;;;;;;;5.77;5.20;;;22.30;99.90;;;;;;4958766;28;20283;-67
2022/06/28 06:48:51;;;;;;;6.53;4.27;;;22.40;99.90;;;;;;4950012;28;20205;-68
2022/06/28 06:51:17;;;;;;;4.87;4.30;;;22.50;99.90;;;;;;4957035;28;20367;-68
2022/06/28 06:53:43;;;;;;;10.20;5.23;;;22.40;99.90;;;;;;4957964;28;20273;-67
2022/06/28 06:56:09;;;;;;;10.07;5.47;;;22.30;99.90;;;;;;4962184;28;20797;-67
2022/06/28 06:58:34;;;;;;;10.00;5.43;;;22.20;99.90;;;;;;4950555;28;20453;-66
2022/06/28 07:01:00;;;;;;;5.00;4.50;;;22.50;99.90;;;;;;4953944;28;20204;-68
2022/06/28 07:03:26;;;;;;;5.03;4.40;;;22.50;99.90;;;;;;4970658;28;20174;-67
2022/06/28 07:05:52;;;;;;;6.57;4.17;;;22.50;99.90;;;;;;4969302;28;20256;-66
2022/06/28 07:08:18;;;;;;;5.93;5.13;;;22.30;99.90;;;;;;4952394;28;20201;-66
2022/06/28 07:10:44;;;;;;;6.37;5.50;;;22.30;99.90;;;;;;4953826;28;20416;-67
2022/06/28 07:13:09;;;;;;;5.97;4.70;;;22.10;99.90;;;;;;4953166;28;20174;-68
2022/06/28 07:15:35;;;;;;;7.97;4.37;;;22.00;99.90;;;;;;4963666;28;20217;-66
2022/06/28 07:18:02;;;;;;;4.90;4.10;;;21.50;99.90;;;;;;4965911;28;20213;-64
2022/06/28 07:20:28;;;;;;;4.77;4.10;;;21.20;99.90;;;;;;4951470;28;20189;-65
2022/06/28 07:22:54;;;;;;;5.60;4.67;;;21.30;99.90;;;;;;4965793;28;20506;-65
2022/06/28 07:25:19;;;;;;;4.60;4.20;;;20.90;99.90;;;;;;4959163;28;20612;-68
2022/06/28 07:27:45;;;;;;;5.60;4.17;;;21.20;99.90;;;;;;4960430;28;21026;-66
2022/06/28 07:30:11;;;;;;;4.67;4.17;;;20.70;1.00;;;;;;4967894;28;20178;-65
2022/06/28 07:32:37;;;;;;;5.30;4.80;;;20.30;1.00;;;;;;4956351;28;20212;-65
2022/06/28 07:35:04;;;;;;;6.73;4.60;;;20.20;99.90;;;;;;4969327;28;20424;-67
2022/06/28 07:37:30;;;;;;;6.83;5.10;;;20.30;1.00;;;;;;4969612;28;20232;-66
2022/06/28 07:39:55;;;;;;;7.63;6.70;;;20.20;1.00;;;;;;4969846;28;20873;-66
2022/06/28 07:42:21;;;;;;;6.67;6.07;;;19.50;1.00;;;;;;4963255;28;20327;-66
2022/06/28 07:44:47;;;;;;;6.77;6.17;;;19.00;1.00;;;;;;4966593;28;20213;-66
2022/06/28 07:47:12;;;;;;;10.10;6.83;;;18.60;99.90;;;;;;4966230;28;20233;-64
2022/06/28 07:52:35;;;;;;;7.37;6.67;;;18.60;1.00;;;;;;4961194;28;20323;-67
2022/06/28 07:55:01;;;;;;;8.47;7.77;;;18.40;1.00;;;;;;4954829;28;20790;-66
2022/06/28 07:57:27;;;;;;;8.57;7.27;;;18.30;1.00;;;;;;4966706;28;20997;-67
2022/06/28 07:59:54;;;;;;;10.03;7.60;;;18.20;89.30;;;;;;4968977;28;20397;-68
2022/06/28 08:02:19;;;;;;;9.10;8.20;;;18.10;99.90;;;;;;4969309;28;20504;-69
2022/06/28 08:04:46;;;;;;;9.03;8.07;;;18.00;99.90;;;;;;4958129;28;20527;-66
2022/06/28 08:07:12;;;;;;;8.43;7.73;;;18.20;99.90;;;;;;4955583;28;20247;-68
2022/06/28 08:09:38;;;;;;;8.47;7.77;;;18.60;51.60;;;;;;5149970;23;20495;-68
2022/06/28 08:12:05;;;;;;;7.83;6.60;;;18.90;1.00;;;;;;5004460;28;21033;-68
2022/06/28 08:14:31;;;;;;;8.23;7.43;;;19.40;1.00;;;;;;4989785;28;20473;-67
2022/06/28 08:16:56;;;;;;;8.20;7.30;;;19.60;1.00;;;;;;5001868;28;20746;-67
2022/06/28 08:19:22;;;;;;;8.50;7.47;;;20.60;99.90;;;;;;4987119;28;20171;-68
2022/06/28 08:21:49;;;;;;;12.53;5.10;;;20.70;99.90;;;;;;5007860;28;20169;-69
2022/06/28 08:24:15;;;;;;;8.47;6.33;;;21.40;99.90;;;;;;5001121;28;20664;-67
2022/06/28 08:26:42;;;;;;;11.83;5.13;;;22.30;1.00;;;;;;4995420;28;20436;-67
2022/06/28 08:29:17;;;;;;;10.07;4.97;;;22.70;1.00;;;;;;5002454;28;20419;-69
2022/06/28 08:31:44;;;;;;;6.83;5.90;;;22.60;1.00;;;;;;5008641;28;20422;-68
2022/06/28 08:34:10;;;;;;;6.97;5.50;;;21.90;1.00;;;;;;5008577;28;20415;-66
2022/06/28 08:36:36;;;;;;;5.67;5.17;;;21.90;1.00;;;;;;5008075;28;20762;-66
2022/06/28 08:39:03;;;;;;;4.70;4.23;;;22.40;1.00;;;;;;5007000;28;20455;-67
2022/06/28 08:41:31;;;;;;;6.47;5.87;;;22.40;1.00;;;;;;5007423;28;20441;-68
2022/06/28 08:43:57;;;;;;;4.80;4.37;;;22.20;1.00;;;;;;5007018;28;20863;-67
2022/06/28 08:46:24;;;;;;;5.90;5.20;;;22.00;1.00;;;;;;5005225;28;20556;-67
2022/06/28 08:48:58;;;;;;;4.90;4.40;;;22.40;1.00;;;;;;5005367;28;20222;-67
2022/06/28 08:51:30;;;;;;;7.70;5.00;;;22.40;1.00;;;;;;5007503;28;20516;-67
2022/06/28 08:54:00;;;;;;;4.97;4.47;;;22.60;1.00;;;;;;5007124;28;20431;-68
2022/06/28 08:56:26;;;;;;;5.33;4.00;;;22.80;1.00;;;;;;5006256;28;20411;-67
2022/06/28 08:58:51;;;;;;;6.10;4.10;;;22.60;1.00;;;;;;5000173;28;21244;-66
2022/06/28 09:01:17;;;;;;;5.00;4.40;;;22.70;1.00;;;;;;5006482;28;20266;-66
2022/06/28 09:03:49;;;;;;;6.90;5.10;;;21.90;1.00;;;;;;5004500;28;20267;-67
2022/06/28 09:06:15;;;;;;;5.47;4.47;;;22.00;1.00;;;;;;5007475;28;20188;-67
2022/06/28 09:08:41;;;;;;;4.63;4.23;;;22.20;1.00;;;;;;5009653;28;20446;-67
2022/06/28 09:11:07;;;;;;;4.93;4.43;;;22.20;1.00;;;;;;5007311;28;20288;-65
2022/06/28 09:13:35;;;;;;;7.90;5.97;;;21.60;1.00;;;;;;5004280;28;20226;-68
2022/06/28 09:16:04;;;;;;;4.57;4.07;;;21.40;1.00;;;;;;5009353;28;21001;-67
2022/06/28 09:18:36;;;;;;;5.50;4.57;;;21.60;1.00;;;;;;5020544;23;20486;-68
2022/06/28 09:21:07;;;;;;;4.70;4.10;;;21.60;1.00;;;;;;5010991;28;20498;-69
2022/06/28 09:23:39;;;;;;;4.57;4.17;;;21.30;1.00;;;;;;5005426;28;20414;-68
2022/06/28 09:26:10;;;;;;;4.40;4.03;;;21.20;1.00;;;;;;5004639;28;20536;-68
2022/06/28 09:28:43;;;;;;;3.87;3.57;;;21.20;1.00;;;;;;5013987;28;20508;-68
2022/06/28 09:31:29;;;;;;;3.67;3.20;;;21.30;1.00;;;;;;5004282;28;20416;-67
2022/06/28 09:34:01;;;;;;;5.63;3.57;;;21.40;1.00;;;;;;5020283;28;20514;-67
2022/06/28 09:36:28;;;;;;;4.67;3.83;;;21.20;1.00;;;;;;5021897;28;20427;-67
2022/06/28 09:38:56;;;;;;;4.53;4.13;;;21.20;1.00;;;;;;5025882;28;20434;-65
2022/06/28 09:41:27;;;;;;;8.20;4.70;;;21.40;1.00;;;;;;5020654;28;20522;-65
2022/06/28 09:43:55;;;;;;;4.50;4.10;;;21.60;1.00;;;;;;5021642;28;20426;-67
2022/06/28 09:46:23;;;;;;;6.67;4.20;;;21.40;1.00;;;;;;5023633;28;20457;-65
2022/06/28 09:48:49;;;;;;;4.47;4.07;;;21.30;1.00;;;;;;5033188;28;20438;-66
2022/06/28 09:51:22;;;;;;;5.07;4.57;;;21.40;1.00;;;;;;5033430;28;20480;-65
2022/06/28 09:53:58;;;;;;;4.10;3.70;;;21.40;1.00;;;;;;5037693;28;20415;-66
2022/06/28 09:56:26;;;;;;;5.10;4.37;;;21.30;1.00;;;;;;5023268;28;20525;-68
2022/06/28 09:58:52;;;;;;;5.80;3.63;;;21.70;1.00;;;;;;5020848;28;21233;-67
2022/06/28 10:01:21;;;;;;;6.27;3.40;;;21.60;1.00;;;;;;5002963;28;20419;-67
2022/06/28 10:03:49;;;;;;;4.40;3.77;;;21.80;1.00;;;;;;5018529;28;20360;-67
2022/06/28 10:06:16;;;;;;;7.87;4.07;;;21.80;1.00;;;;;;5020521;28;20557;-67
2022/06/28 10:08:42;;;;;;;6.80;4.03;;;21.70;1.00;;;;;;5021727;28;20490;-67
2022/06/28 10:11:10;;;;;;;4.80;4.40;;;21.90;1.00;;;;;;5019798;28;20459;-67
2022/06/28 10:16:33;;;;;;;5.70;5.17;;;21.40;1.00;;;;;;5018148;28;20472;-68
2022/06/28 10:19:00;;;;;;;6.20;4.20;;;21.10;1.00;;;;;;5018269;28;20454;-68
2022/06/28 10:22:10;;;;;;;9.73;5.90;;;20.90;1.00;;;;;;5021063;28;20462;-67
2022/06/28 10:24:54;;;;;;;4.77;4.37;;;21.70;1.00;;;;;;5017342;28;20446;-66
2022/06/28 10:27:20;;;;;;;5.03;4.53;;;21.70;1.00;;;;;;5022394;28;20513;-66
2022/06/28 10:30:00;;;;;;;5.57;5.07;;;21.60;1.00;;;;;;5020308;28;20449;-66
2022/06/28 10:32:51;;;;;;;6.80;4.70;;;21.40;1.00;;;;;;5019924;28;20428;-67
2022/06/28 10:35:32;;;;;;;5.53;4.77;;;21.10;1.00;;;;;;5022445;28;20821;-67
2022/06/28 10:38:10;;;;;;;5.40;4.90;;;20.90;1.00;;;;;;5020381;28;20419;-69
2022/06/28 10:40:41;;;;;;;5.43;4.93;;;20.70;1.00;;;;;;5018665;28;20493;-69
2022/06/28 10:43:08;;;;;;;6.03;5.40;;;20.90;1.00;;;;;;5020836;28;20423;-69
2022/06/28 10:46:05;;;;;;;7.53;5.20;;;20.90;1.00;;;;;;5018828;28;20537;-68
2022/06/28 10:48:51;;;;;;;9.40;5.43;;;21.10;1.00;;;;;;5021690;28;20431;-67
2022/06/28 10:51:19;;;;;;;5.77;4.93;;;21.10;1.00;;;;;;5022765;28;20429;-68
2022/06/28 10:53:57;;;;;;;8.03;4.97;;;20.60;1.00;;;;;;5022396;28;20542;-68
2022/06/28 10:56:25;;;;;;;6.03;5.30;;;20.40;1.00;;;;;;5019217;28;20475;-67
2022/06/28 10:58:58;;;;;;;6.90;4.53;;;20.60;1.00;;;;;;5021015;28;20426;-68
2022/06/28 11:01:44;;;;;;;4.80;4.30;;;20.80;1.00;;;;;;5019332;28;20536;-68
2022/06/28 11:04:19;;;;;;;5.90;4.10;;;21.00;1.00;;;;;;5020635;28;20410;-68
2022/06/28 11:06:46;;;;;;;4.67;4.07;;;21.40;1.00;;;;;;5019390;28;21008;-70
2022/06/28 11:09:30;;;;;;;4.30;3.90;;;21.50;1.00;;;;;;5020670;28;20848;-68
2022/06/28 11:12:15;;;;;;;5.57;4.70;;;21.50;1.00;;;;;;5019547;28;20403;-66
2022/06/28 11:14:57;;;;;;;4.07;3.77;;;21.60;1.00;;;;;;5019088;28;20791;-67
2022/06/28 11:17:27;;;;;;;3.60;3.30;;;21.50;99.90;;;;;;5019903;28;20419;-67
2022/06/28 11:19:55;;;;;;;3.47;3.17;;;21.50;99.90;;;;;;5019248;28;20523;-66
2022/06/28 11:22:26;;;;;;;3.80;3.27;;;21.50;99.90;;;;;;5018515;28;20402;-66
2022/06/28 11:24:54;;;;;;;4.70;3.10;;;21.10;99.90;;;;;;5018668;28;20458;-68
2022/06/28 11:27:21;;;;;;;3.13;2.83;;;21.30;99.90;;;;;;5017964;28;20476;-67
2022/06/28 11:30:07;;;;;;;4.27;2.60;;;21.70;99.90;;;;;;5020994;28;20914;-65
2022/06/28 11:32:35;;;;;;;4.53;3.70;;;21.60;99.90;;;;;;5020189;28;20428;-68
2022/06/28 11:35:07;;;;;;;6.40;3.60;;;21.30;99.90;;;;;;5021367;28;20910;-68
2022/06/28 11:37:47;;;;;;;4.20;3.80;;;21.40;99.90;;;;;;5016133;28;21013;-66
2022/06/28 11:40:13;;;;;;;5.13;3.40;;;21.40;99.90;;;;;;5020479;28;20497;-65
2022/06/28 11:42:39;;;;;;;3.63;2.90;;;21.80;99.90;;;;;;5018715;28;20474;-67
2022/06/28 11:45:06;;;;;;;3.43;2.93;;;21.80;99.90;;;;;;5020084;28;20450;-66
2022/06/28 11:47:32;;;;;;;3.57;2.60;;;22.00;99.90;;;;;;5023553;28;20275;-67
2022/06/28 11:50:18;;;;;;;3.50;3.20;;;22.20;99.90;;;;;;5018702;28;20411;-68
2022/06/28 11:52:51;;;;;;;5.23;3.47;;;22.20;99.90;;;;;;5019551;28;20509;-67
2022/06/28 11:55:18;;;;;;;8.90;3.13;;;22.20;99.90;;;;;;5021465;28;20548;-68
2022/06/28 11:57:44;;;;;;;4.40;3.23;;;22.40;99.90;;;;;;5020174;28;20465;-67
2022/06/28 12:00:13;;;;;;;3.53;3.13;;;22.20;99.90;;;;;;5019967;28;20410;-68
2022/06/28 12:02:55;;;;;;;4.30;3.73;;;22.20;99.90;;;;;;5019292;28;20422;-68
2022/06/28 12:05:31;;;;;;;4.33;3.93;;;22.00;99.90;;;;;;5018809;28;20513;-68
2022/06/28 12:07:58;;;;;;;3.60;3.30;;;22.00;99.90;;;;;;5018084;28;20854;-66
2022/06/28 12:10:28;;;;;;;4.10;3.80;;;22.30;99.90;;;;;;5020532;28;20464;-68
2022/06/28 12:12:54;;;;;;;4.33;3.93;;;22.40;99.90;;;;;;5018098;28;20419;-66
2022/06/28 12:15:28;;;;;;;3.60;3.30;;;22.40;99.90;;;;;;5021886;28;20993;-68
2022/06/28 12:18:00;;;;;;;3.27;2.97;;;22.60;99.90;;;;;;5016572;28;20451;-66
2022/06/28 12:20:26;;;;;;;5.27;4.10;;;22.80;99.90;;;;;;5017450;28;20409;-68
2022/06/28 12:23:03;;;;;;;5.70;4.20;;;22.80;99.90;;;;;;5021031;28;20411;-68
2022/06/28 12:25:29;;;;;;;5.90;3.90;;;22.80;99.90;;;;;;5017194;28;20882;-67
2022/06/28 12:27:55;;;;;;;5.20;4.10;;;22.50;99.90;;;;;;5020575;28;20727;-67
2022/06/28 12:30:21;;;;;;;4.70;4.20;;;22.40;99.90;;;;;;5019810;28;20418;-69
2022/06/28 12:32:48;;;;;;;4.90;3.60;;;22.30;99.90;;;;;;5019332;28;20629;-69
2022/06/28 12:35:15;;;;;;;5.00;4.03;;;22.40;99.90;;;;;;5020899;28;20715;-68
2022/06/28 12:37:41;;;;;;;4.47;4.03;;;22.40;99.90;;;;;;5019962;28;21032;-67
2022/06/28 12:40:08;;;;;;;8.80;3.80;;;22.60;99.90;;;;;;5019259;28;20498;-66
2022/06/28 12:42:33;;;;;;;5.63;4.10;;;22.70;99.90;;;;;;5017548;28;20459;-68
2022/06/28 12:45:00;;;;;;;5.93;3.97;;;22.80;99.90;;;;;;5018094;28;20556;-66
2022/06/28 12:47:43;;;;;;;6.00;2.83;;;22.80;99.90;;;;;;5019534;28;20183;-65
2022/06/28 12:50:13;;;;;;;6.87;3.67;;;22.70;99.90;;;;;;5016656;28;21104;-65
2022/06/28 12:52:39;;;;;;;3.00;2.80;;;22.50;99.90;;;;;;5019379;28;20471;-66
2022/06/28 12:55:06;;;;;;;7.30;3.30;;;22.40;99.90;;;;;;5021028;28;20419;-65
2022/06/28 12:57:32;;;;;;;5.80;3.20;;;22.40;99.90;;;;;;5027274;28;20520;-65
2022/06/28 12:59:57;;;;;;;7.60;4.13;;;22.30;99.90;;;;;;5026986;28;20462;-67
2022/06/28 13:02:24;;;;;;;4.07;3.40;;;22.20;99.90;;;;;;5027981;28;20176;-68
2022/06/28 13:04:50;;;;;;;3.30;2.90;;;22.10;99.90;;;;;;5026824;28;20289;-68
2022/06/28 13:07:19;;;;;;;3.50;3.20;;;22.20;99.90;;;;;;5026872;28;20418;-66